createdAt,value
2022-11-24T00:01:17.925Z,15.96
2022-11-24T00:03:46.614Z,15.92
2022-11-24T00:06:15.864Z,15.89
2022-11-24T00:08:44.486Z,15.89
2022-11-24T00:11:14.160Z,15.98
2022-11-24T00:13:41.486Z,15.81
2022-11-24T00:16:12.305Z,15.89
2022-11-24T00:18:40.289Z,15.96
2022-11-24T00:21:07.446Z,15.94
2022-11-24T00:23:35.202Z,15.88
2022-11-24T00:26:12.014Z,15.90
2022-11-24T00:28:39.669Z,15.89
2022-11-24T00:31:19.103Z,15.89
2022-11-24T00:33:50.604Z,15.85
2022-11-24T00:36:18.819Z,15.76
2022-11-24T00:38:46.190Z,15.57
2022-11-24T00:41:13.449Z,15.49
2022-11-24T00:43:40.357Z,15.48
2022-11-24T00:46:07.145Z,15.49
2022-11-24T00:48:33.920Z,15.45
2022-11-24T00:51:03.182Z,15.36
2022-11-24T00:53:30.388Z,15.44
2022-11-24T00:55:57.338Z,15.41
2022-11-24T00:58:24.824Z,15.46
2022-11-24T01:00:52.417Z,15.46
2022-11-24T01:03:20.707Z,15.49
2022-11-24T01:05:47.390Z,15.44
2022-11-24T01:08:15.295Z,15.46
2022-11-24T01:10:41.933Z,15.36
2022-11-24T01:13:08.650Z,15.39
2022-11-24T01:15:36.307Z,15.29
2022-11-24T01:18:04.154Z,15.31
2022-11-24T01:20:31.492Z,15.15
2022-11-24T01:22:58.218Z,15.04
2022-11-24T01:25:24.953Z,15.14
2022-11-24T01:27:51.904Z,15.10
2022-11-24T01:30:18.673Z,15.18
2022-11-24T01:32:45.362Z,15.26
2022-11-24T01:35:11.987Z,15.29
2022-11-24T01:37:38.707Z,15.31
2022-11-24T01:40:06.097Z,15.31
2022-11-24T01:42:52.515Z,15.35
2022-11-24T01:45:42.292Z,15.30
2022-11-24T01:48:41.067Z,15.22
2022-11-24T01:51:17.413Z,15.23
2022-11-24T01:53:49.152Z,15.23
2022-11-24T01:56:15.968Z,15.26
2022-11-24T01:58:46.583Z,15.23
2022-11-24T02:01:13.689Z,15.19
2022-11-24T02:03:44.034Z,15.22
2022-11-24T02:06:18.817Z,15.21
2022-11-24T02:08:58.145Z,15.13
2022-11-24T02:11:28.517Z,15.20
2022-11-24T02:13:57.141Z,15.22
2022-11-24T02:16:23.868Z,15.15
2022-11-24T02:18:51.172Z,15.20
2022-11-24T02:21:18.352Z,15.05
2022-11-24T02:23:55.784Z,14.84
2022-11-24T02:26:37.748Z,14.93
2022-11-24T02:29:04.410Z,14.96
2022-11-24T02:31:31.273Z,14.94
2022-11-24T02:33:58.284Z,14.98
2022-11-24T02:36:24.969Z,14.84
2022-11-24T02:38:51.594Z,14.88
2022-11-24T02:41:21.784Z,14.95
2022-11-24T02:43:54.424Z,14.97
2022-11-24T02:46:21.475Z,14.89
2022-11-24T02:48:48.257Z,14.98
2022-11-24T02:51:14.938Z,14.96
2022-11-24T02:53:41.620Z,15.07
2022-11-24T02:56:08.223Z,15.10
2022-11-24T02:58:34.816Z,15.11
2022-11-24T03:01:01.408Z,15.12
2022-11-24T03:03:28.190Z,15.03
2022-11-24T03:05:54.891Z,15.04
2022-11-24T03:08:21.651Z,14.92
2022-11-24T03:10:49.173Z,14.98
2022-11-24T03:13:15.963Z,15.04
2022-11-24T03:15:42.694Z,14.95
2022-11-24T03:18:09.512Z,14.85
2022-11-24T03:20:36.317Z,14.94
2022-11-24T03:23:02.947Z,15.00
2022-11-24T03:25:29.594Z,15.02
2022-11-24T03:27:58.320Z,15.03
2022-11-24T03:30:25.065Z,15.08
2022-11-24T03:32:53.693Z,14.98
2022-11-24T03:35:23.824Z,15.03
2022-11-24T03:37:50.476Z,15.09
2022-11-24T03:40:18.123Z,15.08
2022-11-24T03:42:44.792Z,15.13
2022-11-24T03:45:37.900Z,15.14
2022-11-24T03:47:58.056Z,15.13
2022-11-24T03:50:24.685Z,15.11
2022-11-24T03:52:51.323Z,15.11
2022-11-24T03:55:17.973Z,15.15
2022-11-24T03:57:44.609Z,15.10
2022-11-24T04:00:11.968Z,15.15
2022-11-24T04:02:38.748Z,15.18
2022-11-24T04:05:06.265Z,15.19
2022-11-24T04:07:33.030Z,15.19
2022-11-24T04:09:59.696Z,15.20
2022-11-24T04:12:44.653Z,15.12
2022-11-24T04:15:14.345Z,15.15
2022-11-24T04:17:41.112Z,15.15
2022-11-24T04:20:08.890Z,15.13
2022-11-24T04:22:35.917Z,15.14
2022-11-24T04:25:03.493Z,15.13
2022-11-24T04:27:30.162Z,15.15
2022-11-24T04:29:56.883Z,15.18
2022-11-24T04:32:23.697Z,15.18
2022-11-24T04:34:50.316Z,15.20
2022-11-24T04:37:17.031Z,15.16
2022-11-24T04:39:44.891Z,15.12
2022-11-24T04:42:11.557Z,15.14
2022-11-24T04:44:38.597Z,15.12
2022-11-24T04:47:05.644Z,15.10
2022-11-24T04:49:32.649Z,15.03
2022-11-24T04:51:59.379Z,15.06
2022-11-24T04:54:26.071Z,15.05
2022-11-24T04:56:53.148Z,14.98
2022-11-24T04:59:20.189Z,14.98
2022-11-24T05:01:47.612Z,14.95
2022-11-24T05:04:15.820Z,15.06
2022-11-24T05:06:42.901Z,15.05
2022-11-24T05:09:14.654Z,15.02
2022-11-24T05:11:41.995Z,14.99
2022-11-24T05:14:08.695Z,14.93
2022-11-24T05:16:36.010Z,14.61
2022-11-24T05:19:02.792Z,14.69
2022-11-24T05:21:29.408Z,14.59
2022-11-24T05:23:56.063Z,14.67
2022-11-24T05:26:22.724Z,14.61
2022-11-24T05:28:49.391Z,14.66
2022-11-24T05:31:16.104Z,14.69
2022-11-24T05:33:43.352Z,14.64
2022-11-24T05:36:30.307Z,14.63
2022-11-24T05:38:57.308Z,14.62
2022-11-24T05:41:23.910Z,14.56
2022-11-24T05:43:50.533Z,14.57
2022-11-24T05:46:17.330Z,14.56
2022-11-24T05:48:44.159Z,14.59
2022-11-24T05:51:10.740Z,14.61
2022-11-24T05:53:37.415Z,14.63
2022-11-24T05:56:04.906Z,14.62
2022-11-24T05:58:31.662Z,14.59
2022-11-24T06:00:58.328Z,14.60
2022-11-24T06:03:24.943Z,14.59
2022-11-24T06:05:51.604Z,14.57
2022-11-24T06:08:18.280Z,14.56
2022-11-24T06:10:44.835Z,14.50
2022-11-24T06:13:11.500Z,14.48
2022-11-24T06:15:38.611Z,14.44
2022-11-24T06:18:05.261Z,14.36
2022-11-24T06:20:33.124Z,14.23
2022-11-24T06:23:00.573Z,14.29
2022-11-24T06:25:27.688Z,14.31
2022-11-24T06:27:54.332Z,14.24
2022-11-24T06:30:21.017Z,14.39
2022-11-24T06:32:49.920Z,14.37
2022-11-24T06:35:16.909Z,14.46
2022-11-24T06:37:43.646Z,14.50
2022-11-24T06:40:10.617Z,14.44
2022-11-24T06:42:37.675Z,14.46
2022-11-24T06:45:09.055Z,14.48
2022-11-24T06:47:37.261Z,14.52
2022-11-24T06:50:04.651Z,14.53
2022-11-24T06:52:31.244Z,14.50
2022-11-24T06:54:57.809Z,14.51
2022-11-24T06:57:24.467Z,14.46
2022-11-24T06:59:51.095Z,14.51
2022-11-24T07:02:17.644Z,14.51
2022-11-24T07:04:44.280Z,14.42
2022-11-24T07:07:11.016Z,14.43
2022-11-24T07:09:37.684Z,14.42
2022-11-24T07:12:05.886Z,14.43
2022-11-24T07:14:32.729Z,14.50
2022-11-24T07:16:59.777Z,14.52
2022-11-24T07:19:26.448Z,14.45
2022-11-24T07:21:53.040Z,14.49
2022-11-24T07:24:19.803Z,14.50
2022-11-24T07:26:46.451Z,14.46
2022-11-24T07:29:13.068Z,14.38
2022-11-24T07:31:39.815Z,14.40
2022-11-24T07:34:06.553Z,14.45
2022-11-24T07:36:33.193Z,14.45
2022-11-24T07:39:00.012Z,14.38
2022-11-24T07:41:26.689Z,14.30
2022-11-24T07:43:53.388Z,14.38
2022-11-24T07:46:20.646Z,14.47
2022-11-24T07:48:47.783Z,14.55
2022-11-24T07:51:15.867Z,14.55
2022-11-24T07:53:42.715Z,14.60
2022-11-24T07:56:09.838Z,14.85
2022-11-24T07:58:37.889Z,15.01
2022-11-24T08:01:12.633Z,15.14
2022-11-24T08:03:39.806Z,15.22
2022-11-24T08:06:24.018Z,15.32
2022-11-24T08:08:53.053Z,15.27
2022-11-24T08:11:19.739Z,15.35
2022-11-24T08:13:46.518Z,15.21
2022-11-24T08:16:15.974Z,15.47
2022-11-24T08:18:43.339Z,15.39
2022-11-24T08:21:14.202Z,15.47
2022-11-24T08:23:41.567Z,15.52
2022-11-24T08:26:13.610Z,15.54
2022-11-24T08:28:40.158Z,15.69
2022-11-24T08:31:18.946Z,15.72
2022-11-24T08:33:46.236Z,15.72
2022-11-24T08:36:17.131Z,15.71
2022-11-24T08:38:44.994Z,15.83
2022-11-24T08:41:14.330Z,15.90
2022-11-24T08:43:41.429Z,15.91
2022-11-24T08:46:11.153Z,16.02
2022-11-24T08:48:38.036Z,16.05
2022-11-24T08:51:11.012Z,16.20
2022-11-24T08:53:38.186Z,16.43
2022-11-24T08:56:06.055Z,16.46
2022-11-24T08:58:33.707Z,16.54
2022-11-24T09:01:14.943Z,16.69
2022-11-24T09:03:48.592Z,16.45
2022-11-24T09:06:18.576Z,16.49
2022-11-24T09:08:45.159Z,16.52
2022-11-24T09:11:15.213Z,16.58
2022-11-24T09:13:42.519Z,16.41
2022-11-24T09:16:12.343Z,16.49
2022-11-24T09:18:39.429Z,16.53
2022-11-24T09:21:10.680Z,16.59
2022-11-24T09:23:37.887Z,16.62
2022-11-24T09:26:11.999Z,16.68
2022-11-24T09:28:38.785Z,16.79
2022-11-24T09:31:08.484Z,16.73
2022-11-24T09:33:35.770Z,16.82
2022-11-24T09:36:03.436Z,16.71
2022-11-24T09:38:30.071Z,16.59
2022-11-24T09:41:05.732Z,16.70
2022-11-24T09:43:46.162Z,16.79
2022-11-24T09:46:41.236Z,16.95
2022-11-24T09:49:15.454Z,17.02
2022-11-24T09:51:46.790Z,16.90
2022-11-24T09:54:18.433Z,16.95
2022-11-24T09:56:46.436Z,17.13
2022-11-24T09:59:19.819Z,17.12
2022-11-24T10:01:47.822Z,17.22
2022-11-24T10:04:18.347Z,17.41
2022-11-24T10:07:12.992Z,17.44
2022-11-24T10:10:14.124Z,17.55
2022-11-24T10:12:49.828Z,17.49
2022-11-24T10:15:31.008Z,17.64
2022-11-24T10:17:57.596Z,17.42
2022-11-24T10:20:54.828Z,17.58
2022-11-24T10:23:41.252Z,17.60
2022-11-24T10:26:19.163Z,17.65
2022-11-24T10:28:53.651Z,17.60
2022-11-24T10:31:40.724Z,17.57
2022-11-24T10:34:18.597Z,17.49
2022-11-24T10:36:57.163Z,17.30
2022-11-24T10:39:34.715Z,17.26
2022-11-24T10:42:28.064Z,17.35
2022-11-24T10:45:03.063Z,17.39
2022-11-24T10:47:30.752Z,17.43
2022-11-24T10:50:04.949Z,17.47
2022-11-24T10:52:40.287Z,17.45
2022-11-24T10:55:07.314Z,17.46
2022-11-24T10:57:36.496Z,17.55
2022-11-24T11:00:25.942Z,17.73
2022-11-24T11:03:12.046Z,17.88
2022-11-24T11:05:43.980Z,17.93
2022-11-24T11:08:24.090Z,17.99
2022-11-24T11:11:11.896Z,18.04
2022-11-24T11:13:38.506Z,18.12
2022-11-24T11:16:23.606Z,18.23
2022-11-24T11:18:50.367Z,18.35
2022-11-24T11:21:35.191Z,18.49
2022-11-24T11:24:05.254Z,18.69
2022-11-24T11:26:36.313Z,18.84
2022-11-24T11:35:03.024Z,19.22
2022-11-24T11:37:32.822Z,19.41
2022-11-24T11:40:00.502Z,19.57
2022-11-24T11:43:00.777Z,19.72
2022-11-24T11:45:28.397Z,19.68
2022-11-24T11:48:17.784Z,19.63
2022-11-24T11:51:23.449Z,19.70
2022-11-24T11:54:16.979Z,19.71
2022-11-24T11:56:50.303Z,19.74
2022-11-24T11:59:41.587Z,19.87
2022-11-24T12:02:26.612Z,19.91
2022-11-24T12:04:54.174Z,19.98
2022-11-24T12:07:52.504Z,19.95
2022-11-24T12:10:42.724Z,19.93
2022-11-24T12:13:48.550Z,19.93
2022-11-24T12:16:45.612Z,20.05
2022-11-24T12:19:31.921Z,20.11
2022-11-24T12:22:04.507Z,20.10
2022-11-24T12:24:45.028Z,20.22
2022-11-24T12:27:22.822Z,20.22
2022-11-24T12:29:53.063Z,20.31
2022-11-24T12:32:41.352Z,20.36
2022-11-24T12:35:39.333Z,20.31
2022-11-24T12:38:40.167Z,20.12
2022-11-24T12:41:39.780Z,20.04
2022-11-24T12:44:00.935Z,19.98
2022-11-24T12:46:36.761Z,19.84
2022-11-24T12:49:18.833Z,19.78
2022-11-24T12:51:52.414Z,19.64
2022-11-24T12:54:21.144Z,19.51
2022-11-24T12:57:06.912Z,19.45
2022-11-24T13:00:06.068Z,19.35
2022-11-24T13:02:44.628Z,19.29
2022-11-24T13:05:46.376Z,19.22
2022-11-24T13:08:14.795Z,19.14
2022-11-24T13:10:57.997Z,19.05
2022-11-24T13:13:57.050Z,18.99
2022-11-24T13:16:53.669Z,18.89
2022-11-24T13:19:22.525Z,18.75
2022-11-24T13:21:52.721Z,18.69
2022-11-24T13:24:24.167Z,18.64
2022-11-24T13:26:52.331Z,18.64
2022-11-24T13:29:28.295Z,18.41
2022-11-24T13:31:56.015Z,18.38
2022-11-24T13:34:43.727Z,18.44
2022-11-24T13:37:31.485Z,18.46
2022-11-24T13:40:22.651Z,18.50
2022-11-24T13:42:55.364Z,18.57
2022-11-24T13:45:41.528Z,18.69
2022-11-24T13:48:20.829Z,18.78
2022-11-24T13:50:50.911Z,18.78
2022-11-24T13:53:31.945Z,18.82
2022-11-24T13:56:02.775Z,18.84
2022-11-24T13:58:32.457Z,18.88
2022-11-24T14:01:02.024Z,18.88
2022-11-24T14:03:35.194Z,18.97
2022-11-24T14:06:03.114Z,18.94
2022-11-24T14:08:36.339Z,19.04
2022-11-24T14:11:11.252Z,19.10
2022-11-24T14:13:37.824Z,19.14
2022-11-24T14:16:04.550Z,19.17
2022-11-24T14:18:33.335Z,19.21
2022-11-24T14:21:14.876Z,19.20
2022-11-24T14:23:44.618Z,19.16
2022-11-24T14:26:23.168Z,19.15
2022-11-24T14:28:50.493Z,19.21
2022-11-24T14:31:25.671Z,19.20
2022-11-24T14:34:12.310Z,19.21
2022-11-24T14:36:39.587Z,19.18
2022-11-24T14:39:06.888Z,19.22
2022-11-24T14:41:34.341Z,19.15
2022-11-24T14:44:07.472Z,19.23
2022-11-24T14:46:35.221Z,19.20
2022-11-24T14:49:03.350Z,19.22
2022-11-24T14:51:35.836Z,19.22
2022-11-24T14:54:06.277Z,19.25
2022-11-24T14:56:36.135Z,19.27
2022-11-24T14:59:04.520Z,19.31
2022-11-24T15:01:34.972Z,19.29
2022-11-24T15:07:22.906Z,19.26
2022-11-24T15:09:53.113Z,19.26
2022-11-24T15:12:28.968Z,19.28
2022-11-24T15:15:18.057Z,19.26
2022-11-24T15:18:00.236Z,19.22
2022-11-24T15:20:30.228Z,19.18
2022-11-24T15:23:23.135Z,19.14
2022-11-24T15:25:51.836Z,19.09
2022-11-24T15:28:19.622Z,19.08
2022-11-24T15:30:46.210Z,19.08
2022-11-24T15:33:15.744Z,19.08
2022-11-24T15:35:42.588Z,19.05
2022-11-24T15:38:09.728Z,19.06
2022-11-24T15:40:40.810Z,19.00
2022-11-24T15:43:36.798Z,18.96
2022-11-24T15:46:04.734Z,18.92
2022-11-24T15:48:31.856Z,18.91
2022-11-24T15:51:01.144Z,18.86
2022-11-24T15:53:32.196Z,18.85
2022-11-24T15:56:00.135Z,18.78
2022-11-24T15:58:26.730Z,18.75
2022-11-24T16:00:53.799Z,18.74
2022-11-24T16:06:12.820Z,18.63
2022-11-24T16:08:39.351Z,18.62
2022-11-24T16:11:06.087Z,18.53
2022-11-24T16:13:32.721Z,18.52
2022-11-24T16:15:59.583Z,18.48
2022-11-24T16:18:26.234Z,18.46
2022-11-24T16:20:52.875Z,18.44
2022-11-24T16:23:19.466Z,18.43
2022-11-24T16:25:46.160Z,18.42
2022-11-24T16:28:12.819Z,18.38
2022-11-24T16:30:39.443Z,18.33
2022-11-24T16:33:06.729Z,18.31
2022-11-24T16:35:33.989Z,18.32
2022-11-24T16:38:00.634Z,18.27
2022-11-24T16:40:27.183Z,18.28
2022-11-24T16:42:56.245Z,18.27
2022-11-24T16:45:22.911Z,18.23
2022-11-24T16:47:49.551Z,18.21
2022-11-24T16:50:16.232Z,18.20
2022-11-24T16:52:42.900Z,18.24
2022-11-24T16:55:11.677Z,18.25
2022-11-24T16:57:38.339Z,18.25
2022-11-24T17:00:06.171Z,18.21
2022-11-24T17:02:34.100Z,18.19
2022-11-24T17:05:00.989Z,18.17
2022-11-24T17:07:27.664Z,18.12
2022-11-24T17:09:54.404Z,18.15
2022-11-24T17:12:21.010Z,18.13
2022-11-24T17:15:09.385Z,18.13
2022-11-24T17:17:34.512Z,18.13
2022-11-24T17:20:01.131Z,18.10
2022-11-24T17:22:28.019Z,18.08
2022-11-24T17:24:54.603Z,18.06
2022-11-24T17:27:21.163Z,18.02
2022-11-24T17:29:47.801Z,18.06
2022-11-24T17:32:14.464Z,18.05
2022-11-24T17:34:41.159Z,18.08
2022-11-24T17:37:07.783Z,18.02
2022-11-24T17:39:34.389Z,18.01
2022-11-24T17:42:01.037Z,18.07
2022-11-24T17:44:27.698Z,18.06
2022-11-24T17:46:54.335Z,18.03
2022-11-24T17:49:21.261Z,18.00
2022-11-24T17:51:50.549Z,18.01
2022-11-24T17:57:05.121Z,17.98
2022-11-24T17:59:31.743Z,17.96
2022-11-24T18:01:58.459Z,17.96
2022-11-24T18:04:25.099Z,17.96
2022-11-24T18:06:51.725Z,17.92
2022-11-24T18:09:18.281Z,17.89
2022-11-24T18:11:45.072Z,17.86
2022-11-24T18:14:11.684Z,17.88
2022-11-24T18:16:38.436Z,17.92
2022-11-24T18:19:10.751Z,17.96
2022-11-24T18:21:42.231Z,17.92
2022-11-24T18:24:10.654Z,17.90
2022-11-24T18:26:38.075Z,17.96
2022-11-24T18:29:04.934Z,17.90
2022-11-24T18:31:32.390Z,17.93
2022-11-24T18:33:59.298Z,17.96
2022-11-24T18:36:30.286Z,17.97
2022-11-24T18:39:01.991Z,17.93
2022-11-24T18:41:28.928Z,17.96
2022-11-24T18:43:55.568Z,17.94
2022-11-24T18:46:22.302Z,17.93
2022-11-24T18:48:49.112Z,17.97
2022-11-24T18:51:15.841Z,17.94
2022-11-24T18:53:44.292Z,17.94
2022-11-24T18:56:16.491Z,17.97
2022-11-24T18:58:44.091Z,18.00
2022-11-24T19:01:16.031Z,18.00
2022-11-24T19:03:48.640Z,18.02
2022-11-24T19:06:20.053Z,17.95
2022-11-24T19:08:47.108Z,17.99
2022-11-24T19:11:18.828Z,18.01
2022-11-24T19:13:45.468Z,18.03
2022-11-24T19:16:12.668Z,18.04
2022-11-24T19:18:39.640Z,18.06
2022-11-24T19:21:06.847Z,18.07
2022-11-24T19:23:33.543Z,18.03
2022-11-24T19:26:04.613Z,18.03
2022-11-24T19:28:31.383Z,18.04
2022-11-24T19:31:01.726Z,18.01
2022-11-24T19:33:28.349Z,18.04
2022-11-24T19:36:27.523Z,18.08
2022-11-24T19:38:56.176Z,18.07
2022-11-24T19:41:26.045Z,18.06
2022-11-24T19:43:55.689Z,18.04
2022-11-24T19:46:26.246Z,18.11
2022-11-24T19:48:59.786Z,18.10
2022-11-24T19:51:31.882Z,18.09
2022-11-24T19:53:59.243Z,18.10
2022-11-24T19:56:31.476Z,18.08
2022-11-24T19:58:58.028Z,18.04
2022-11-24T20:01:30.606Z,18.09
2022-11-24T20:04:03.554Z,18.10
2022-11-24T20:06:51.548Z,18.11
2022-11-24T20:09:18.534Z,18.09
2022-11-24T20:11:45.518Z,18.11
2022-11-24T20:14:13.533Z,18.11
2022-11-24T20:16:40.756Z,18.11
2022-11-24T20:19:12.343Z,18.11
2022-11-24T20:21:40.106Z,18.11
2022-11-24T20:24:10.956Z,18.11
2022-11-24T20:26:43.419Z,18.12
2022-11-24T20:29:12.880Z,18.13
2022-11-24T20:31:42.093Z,18.11
2022-11-24T20:34:09.272Z,18.12
2022-11-24T20:36:38.299Z,18.13
2022-11-24T20:39:09.701Z,18.11
2022-11-24T20:41:39.638Z,18.09
2022-11-24T20:44:08.853Z,18.07
2022-11-24T20:46:37.969Z,18.07
2022-11-24T20:49:06.611Z,18.03
2022-11-24T20:51:36.536Z,18.02
2022-11-24T20:54:06.599Z,18.00
2022-11-24T20:56:39.835Z,17.98
2022-11-24T20:59:07.478Z,17.94
2022-11-24T21:01:40.026Z,17.93
2022-11-24T21:04:09.801Z,17.76
2022-11-24T21:06:37.273Z,17.79
2022-11-24T21:09:05.754Z,17.78
2022-11-24T21:11:32.857Z,17.80
2022-11-24T21:14:00.842Z,17.78
2022-11-24T21:16:30.284Z,17.73
2022-11-24T21:18:59.288Z,17.61
2022-11-24T21:21:33.290Z,17.56
2022-11-24T21:24:01.613Z,17.58
2022-11-24T21:26:28.317Z,17.47
2022-11-24T21:28:55.000Z,17.37
2022-11-24T21:31:23.386Z,17.37
2022-11-24T21:33:54.521Z,17.28
2022-11-24T21:36:23.803Z,17.40
2022-11-24T21:38:55.143Z,17.41
2022-11-24T21:41:23.134Z,17.28
2022-11-24T21:43:50.326Z,17.28
2022-11-24T21:46:17.535Z,17.26
2022-11-24T21:48:44.835Z,17.18
2022-11-24T21:51:16.350Z,17.24
2022-11-24T21:53:44.727Z,17.30
2022-11-24T21:56:17.112Z,17.25
2022-11-24T21:58:55.329Z,17.14
2022-11-24T22:01:25.968Z,17.14
2022-11-24T22:03:53.010Z,17.19
2022-11-24T22:06:20.833Z,17.30
2022-11-24T22:08:48.907Z,17.24
2022-11-24T22:11:18.447Z,17.25
2022-11-24T22:13:45.676Z,17.28
2022-11-24T22:16:15.389Z,17.23
2022-11-24T22:18:43.539Z,17.23
2022-11-24T22:21:18.570Z,17.22
2022-11-24T22:23:45.514Z,17.24
2022-11-24T22:26:15.280Z,17.24
2022-11-24T22:28:43.404Z,17.30
2022-11-24T22:31:24.001Z,17.31
2022-11-24T22:33:51.837Z,17.35
2022-11-24T22:36:23.263Z,17.36
2022-11-24T22:38:57.564Z,17.34
2022-11-24T22:41:25.953Z,17.36
2022-11-24T22:43:53.573Z,17.36
2022-11-24T22:46:26.140Z,17.37
2022-11-24T22:48:54.348Z,17.39
2022-11-24T22:51:23.448Z,17.42
2022-11-24T22:53:52.891Z,17.40
2022-11-24T22:56:20.338Z,17.38
2022-11-24T22:58:47.647Z,17.40
2022-11-24T23:01:19.684Z,17.41
2022-11-24T23:03:46.852Z,17.34
2022-11-24T23:06:15.972Z,17.32
2022-11-24T23:08:43.627Z,17.27
2022-11-24T23:11:16.352Z,17.30
2022-11-24T23:13:43.207Z,17.25
2022-11-24T23:16:11.392Z,17.24
2022-11-24T23:18:38.749Z,17.29
2022-11-24T23:21:14.405Z,17.32
2022-11-24T23:23:44.293Z,17.24
2022-11-24T23:26:16.462Z,17.27
2022-11-24T23:28:45.278Z,17.28
2022-11-24T23:31:15.005Z,17.27
2022-11-24T23:33:42.237Z,17.30
2022-11-24T23:36:12.593Z,17.32
2022-11-24T23:38:40.757Z,17.34
2022-11-24T23:41:13.412Z,17.32
2022-11-24T23:43:42.387Z,17.29
2022-11-24T23:46:11.741Z,17.24
2022-11-24T23:48:42.036Z,17.25
2022-11-24T23:51:16.709Z,17.23
2022-11-24T23:53:44.322Z,17.13
2022-11-24T23:56:21.963Z,17.18
2022-11-24T23:58:49.006Z,17.22
